createdAt,value
2017-11-17T00:01:49.851Z,23.50
2017-11-17T00:04:16.925Z,14.83
2017-11-17T00:06:44.747Z,16.07
2017-11-17T00:09:11.092Z,17.40
2017-11-17T00:11:38.971Z,20.73
2017-11-17T00:14:06.034Z,19.90
2017-11-17T00:16:34.122Z,15.30
2017-11-17T00:19:01.174Z,20.00
2017-11-17T00:21:28.237Z,13.70
2017-11-17T00:23:55.542Z,12.80
2017-11-17T00:26:21.867Z,15.80
2017-11-17T00:28:48.291Z,14.37
2017-11-17T00:31:15.519Z,14.50
2017-11-17T00:33:42.576Z,12.33
2017-11-17T00:36:09.634Z,16.90
2017-11-17T00:38:37.565Z,14.27
2017-11-17T00:41:05.029Z,21.77
2017-11-17T00:43:31.981Z,12.03
2017-11-17T00:45:58.325Z,13.80
2017-11-17T00:48:24.653Z,18.80
2017-11-17T00:50:51.007Z,16.00
2017-11-17T00:53:18.045Z,18.83
2017-11-17T00:55:45.163Z,22.13
2017-11-17T00:58:12.250Z,18.67
2017-11-17T01:00:38.562Z,19.93
2017-11-17T01:03:06.226Z,15.13
2017-11-17T01:05:32.533Z,17.03
2017-11-17T01:07:58.851Z,14.27
2017-11-17T01:10:26.901Z,18.07
2017-11-17T01:12:53.906Z,13.10
2017-11-17T01:15:20.211Z,18.60
2017-11-17T01:17:46.524Z,19.80
2017-11-17T01:20:13.157Z,17.33
2017-11-17T01:22:39.490Z,24.57
2017-11-17T01:25:06.763Z,24.97
2017-11-17T01:27:33.086Z,16.57
2017-11-17T01:30:00.254Z,31.10
2017-11-17T01:32:26.582Z,26.80
2017-11-17T01:34:52.917Z,19.10
2017-11-17T01:37:20.076Z,16.27
2017-11-17T01:39:46.411Z,20.10
2017-11-17T01:42:13.474Z,20.80
2017-11-17T01:44:39.802Z,23.63
2017-11-17T01:47:06.157Z,14.67
2017-11-17T01:49:33.611Z,14.13
2017-11-17T01:52:01.676Z,12.43
2017-11-17T01:54:28.045Z,13.77
2017-11-17T01:56:55.882Z,21.37
2017-11-17T01:59:23.656Z,30.93
2017-11-17T02:01:50.707Z,28.43
2017-11-17T02:04:17.101Z,21.03
2017-11-17T02:06:44.202Z,24.40
2017-11-17T02:09:10.543Z,27.07
2017-11-17T02:11:39.076Z,24.37
2017-11-17T02:14:06.173Z,23.23
2017-11-17T02:16:33.335Z,25.57
2017-11-17T02:19:00.486Z,22.37
2017-11-17T02:21:26.845Z,16.17
2017-11-17T02:23:53.197Z,19.77
2017-11-17T02:26:20.621Z,26.63
2017-11-17T02:28:46.967Z,21.50
2017-11-17T02:31:13.413Z,22.40
2017-11-17T02:33:41.578Z,16.87
2017-11-17T02:36:07.943Z,18.50
2017-11-17T02:38:36.195Z,19.30
2017-11-17T02:41:03.654Z,18.47
2017-11-17T02:43:30.043Z,23.10
2017-11-17T02:45:56.418Z,30.53
2017-11-17T02:48:22.811Z,27.67
2017-11-17T02:50:49.912Z,31.27
2017-11-17T02:53:16.975Z,24.90
2017-11-17T02:55:44.332Z,28.43
2017-11-17T02:58:11.483Z,39.33
2017-11-17T03:00:37.850Z,29.60
2017-11-17T03:03:04.956Z,28.93
2017-11-17T03:05:32.029Z,28.23
2017-11-17T03:07:59.290Z,16.17
2017-11-17T03:10:26.341Z,18.00
2017-11-17T03:12:52.709Z,15.53
2017-11-17T03:15:19.834Z,17.93
2017-11-17T03:17:46.579Z,14.63
2017-11-17T03:20:12.930Z,19.00
2017-11-17T03:22:40.852Z,26.87
2017-11-17T03:25:07.538Z,16.90
2017-11-17T03:27:33.931Z,14.07
2017-11-17T03:30:00.283Z,14.07
2017-11-17T03:32:26.956Z,18.77
2017-11-17T03:34:53.427Z,12.63
2017-11-17T03:37:21.466Z,21.63
2017-11-17T03:39:47.795Z,16.67
2017-11-17T03:42:14.961Z,20.40
2017-11-17T03:44:41.298Z,20.67
2017-11-17T03:47:07.637Z,16.10
2017-11-17T03:49:34.022Z,11.80
2017-11-17T03:52:01.101Z,16.73
2017-11-17T03:54:27.451Z,18.73
2017-11-17T03:56:54.510Z,15.47
2017-11-17T03:59:21.874Z,18.77
2017-11-17T04:01:49.131Z,21.60
2017-11-17T04:04:16.282Z,19.60
2017-11-17T04:06:43.234Z,25.47
2017-11-17T04:09:09.572Z,30.77
2017-11-17T04:11:35.924Z,29.70
2017-11-17T04:14:03.045Z,15.10
2017-11-17T04:16:29.396Z,21.20
2017-11-17T04:18:55.812Z,20.53
2017-11-17T04:21:22.593Z,16.87
2017-11-17T04:23:50.442Z,14.47
2017-11-17T04:26:16.781Z,16.90
2017-11-17T04:28:43.437Z,18.40
2017-11-17T04:31:09.889Z,21.60
2017-11-17T04:33:36.986Z,23.27
2017-11-17T04:36:03.668Z,20.00
2017-11-17T04:38:30.933Z,18.40
2017-11-17T04:40:57.251Z,12.33
2017-11-17T04:43:24.422Z,16.60
2017-11-17T04:45:50.780Z,20.60
2017-11-17T04:48:17.109Z,21.10
2017-11-17T04:50:44.149Z,22.57
2017-11-17T04:53:12.005Z,21.83
2017-11-17T04:55:39.897Z,14.90
2017-11-17T04:58:07.147Z,13.00
2017-11-17T05:00:34.102Z,17.70
2017-11-17T05:03:01.356Z,23.53
2017-11-17T05:05:27.694Z,20.60
2017-11-17T05:07:54.026Z,23.30
2017-11-17T05:10:20.708Z,16.33
2017-11-17T05:12:47.766Z,21.83
2017-11-17T05:15:14.934Z,20.17
2017-11-17T05:17:41.324Z,24.30
2017-11-17T05:20:07.658Z,16.53
2017-11-17T05:22:34.948Z,17.40
2017-11-17T05:25:02.006Z,14.90
2017-11-17T05:27:29.058Z,11.13
2017-11-17T05:29:56.149Z,14.00
2017-11-17T05:32:22.474Z,13.53
2017-11-17T05:34:48.915Z,18.73
2017-11-17T05:37:16.003Z,17.50
2017-11-17T05:39:42.363Z,21.17
2017-11-17T05:42:09.597Z,16.30
2017-11-17T05:44:35.916Z,21.23
2017-11-17T05:47:02.239Z,22.00
2017-11-17T05:49:28.910Z,21.50
2017-11-17T05:51:55.958Z,17.00
2017-11-17T05:54:23.431Z,23.40
2017-11-17T05:56:51.866Z,18.87
2017-11-17T05:59:18.958Z,19.60
2017-11-17T06:01:46.122Z,15.70
2017-11-17T06:04:13.598Z,18.33
2017-11-17T06:06:41.422Z,16.70
2017-11-17T06:09:07.741Z,16.90
2017-11-17T06:11:34.333Z,12.10
2017-11-17T06:14:00.658Z,20.27
2017-11-17T06:16:27.085Z,16.50
2017-11-17T06:18:53.763Z,16.80
2017-11-17T06:21:20.082Z,11.90
2017-11-17T06:23:46.455Z,18.70
2017-11-17T06:26:13.885Z,12.90
2017-11-17T06:28:41.148Z,17.23
2017-11-17T06:31:08.493Z,17.07
2017-11-17T06:33:34.826Z,16.10
2017-11-17T06:36:01.135Z,15.80
2017-11-17T06:38:28.221Z,13.70
2017-11-17T06:40:54.549Z,12.57
2017-11-17T06:43:21.616Z,17.03
2017-11-17T06:45:47.949Z,13.83
2017-11-17T06:48:14.296Z,12.60
2017-11-17T06:50:42.738Z,10.83
2017-11-17T06:53:09.066Z,14.63
2017-11-17T06:55:36.157Z,17.33
2017-11-17T06:58:03.626Z,12.37
2017-11-17T07:00:30.780Z,18.53
2017-11-17T07:02:57.089Z,14.83
2017-11-17T07:05:23.404Z,20.20
2017-11-17T07:07:50.613Z,15.97
2017-11-17T07:10:17.690Z,21.13
2017-11-17T07:12:45.429Z,22.83
2017-11-17T07:15:11.753Z,23.07
2017-11-17T07:17:38.069Z,27.30
2017-11-17T07:20:04.645Z,19.23
2017-11-17T07:22:30.968Z,18.17
2017-11-17T07:24:57.405Z,16.07
2017-11-17T07:27:23.773Z,9.97
2017-11-17T07:29:50.810Z,14.73
2017-11-17T07:32:17.117Z,18.80
2017-11-17T07:34:43.466Z,17.13
2017-11-17T07:37:10.532Z,14.80
2017-11-17T07:39:36.845Z,18.47
2017-11-17T07:42:03.998Z,21.93
2017-11-17T07:44:30.331Z,19.07
2017-11-17T07:46:57.317Z,29.13
2017-11-17T07:49:23.636Z,23.50
2017-11-17T07:51:50.967Z,16.17
2017-11-17T07:54:17.285Z,15.10
2017-11-17T07:56:44.290Z,17.20
2017-11-17T07:59:10.621Z,20.10
2017-11-17T08:01:36.935Z,19.90
2017-11-17T08:04:03.306Z,20.93
2017-11-17T08:06:29.621Z,14.93
2017-11-17T08:08:56.037Z,20.80
2017-11-17T08:11:22.621Z,15.43
2017-11-17T08:13:48.921Z,16.00
2017-11-17T08:16:15.244Z,20.93
2017-11-17T08:18:46.610Z,21.90
2017-11-17T08:21:13.261Z,19.03
2017-11-17T08:23:40.437Z,24.87
2017-11-17T08:26:07.802Z,27.13
2017-11-17T08:28:35.162Z,19.60
2017-11-17T08:31:01.515Z,18.90
2017-11-17T08:33:27.858Z,21.97
2017-11-17T08:35:54.477Z,17.93
2017-11-17T08:38:21.521Z,17.17
2017-11-17T08:40:47.853Z,13.73
2017-11-17T08:43:15.021Z,17.23
2017-11-17T08:45:42.994Z,17.90
2017-11-17T08:48:10.458Z,19.00
2017-11-17T08:50:37.820Z,15.77
2017-11-17T08:53:04.947Z,19.93
2017-11-17T08:55:31.276Z,19.17
2017-11-17T08:57:57.633Z,25.23
2017-11-17T09:00:24.802Z,21.80
2017-11-17T09:02:51.136Z,23.13
2017-11-17T09:05:17.462Z,25.80
2017-11-17T09:07:44.114Z,22.33
2017-11-17T09:10:10.428Z,22.93
2017-11-17T09:12:37.618Z,21.40
2017-11-17T09:15:05.583Z,21.77
2017-11-17T09:17:32.837Z,16.90
2017-11-17T09:19:59.158Z,20.23
2017-11-17T09:22:25.485Z,23.20
2017-11-17T09:24:51.838Z,34.07
2017-11-17T09:27:18.170Z,27.83
2017-11-17T09:29:44.649Z,32.57
2017-11-17T09:32:11.026Z,30.83
2017-11-17T09:34:37.346Z,32.17
2017-11-17T09:37:03.685Z,23.73
2017-11-17T09:39:30.893Z,30.97
2017-11-17T09:41:58.142Z,32.27
2017-11-17T09:44:24.486Z,42.77
2017-11-17T09:46:51.642Z,36.67
2017-11-17T09:49:17.966Z,28.00
2017-11-17T09:51:45.050Z,17.93
2017-11-17T09:54:11.390Z,15.63
2017-11-17T09:56:37.730Z,23.20
2017-11-17T09:59:05.162Z,17.67
2017-11-17T10:01:33.341Z,26.97
2017-11-17T10:04:00.499Z,14.50
2017-11-17T10:06:26.859Z,17.20
2017-11-17T10:08:53.190Z,20.00
2017-11-17T10:11:19.845Z,22.87
2017-11-17T10:13:46.932Z,19.60
2017-11-17T10:16:13.398Z,12.60
2017-11-17T10:18:39.820Z,18.30
2017-11-17T10:21:06.180Z,32.77
2017-11-17T10:23:32.540Z,29.83
2017-11-17T10:25:59.158Z,27.93
2017-11-17T10:28:25.603Z,29.87
2017-11-17T10:30:51.962Z,21.47
2017-11-17T10:33:18.342Z,25.83
2017-11-17T10:35:44.675Z,25.30
2017-11-17T10:38:11.869Z,19.33
2017-11-17T10:40:39.022Z,15.77
2017-11-17T10:43:06.150Z,15.87
2017-11-17T10:45:33.330Z,13.00
2017-11-17T10:48:00.486Z,16.53
2017-11-17T10:50:26.829Z,21.70
2017-11-17T10:52:53.151Z,25.20
2017-11-17T10:55:19.807Z,19.50
2017-11-17T10:57:46.116Z,14.83
2017-11-17T11:00:13.299Z,19.17
2017-11-17T11:02:40.325Z,24.37
2017-11-17T11:05:06.654Z,17.67
2017-11-17T11:07:33.843Z,19.87
2017-11-17T11:10:00.197Z,19.70
2017-11-17T11:12:26.542Z,16.03
2017-11-17T11:14:53.874Z,17.67
2017-11-17T11:17:20.203Z,21.73
2017-11-17T11:19:46.665Z,27.70
2017-11-17T11:22:13.469Z,25.37
2017-11-17T11:24:39.845Z,22.57
2017-11-17T11:27:06.964Z,17.03
2017-11-17T11:29:33.633Z,22.90
2017-11-17T11:32:00.077Z,19.50
2017-11-17T11:34:26.402Z,21.97
2017-11-17T11:36:53.563Z,20.03
2017-11-17T11:39:20.690Z,17.93
2017-11-17T11:41:48.299Z,19.70
2017-11-17T11:44:14.653Z,22.43
2017-11-17T11:46:41.780Z,23.50
2017-11-17T11:49:08.829Z,18.53
2017-11-17T11:51:37.211Z,24.23
2017-11-17T11:54:03.534Z,18.33
2017-11-17T11:56:30.597Z,24.13
2017-11-17T11:58:57.859Z,30.80
2017-11-17T12:01:24.189Z,23.87
2017-11-17T12:03:51.557Z,26.43
2017-11-17T12:06:17.877Z,20.37
2017-11-17T12:08:44.197Z,16.40
2017-11-17T12:11:10.641Z,24.67
2017-11-17T12:13:36.986Z,25.07
2017-11-17T12:16:04.050Z,22.37
2017-11-17T12:18:30.362Z,21.03
2017-11-17T12:20:56.675Z,21.07
2017-11-17T12:23:23.379Z,26.23
2017-11-17T12:25:50.474Z,18.60
2017-11-17T12:28:16.887Z,25.07
2017-11-17T12:30:44.030Z,19.70
2017-11-17T12:33:10.372Z,22.07
2017-11-17T12:35:37.612Z,16.40
2017-11-17T12:38:05.578Z,28.70
2017-11-17T12:40:32.733Z,23.50
2017-11-17T12:42:59.789Z,19.07
2017-11-17T12:45:26.110Z,16.07
2017-11-17T12:47:52.437Z,22.47
2017-11-17T12:50:18.801Z,18.97
2017-11-17T12:52:45.144Z,15.10
2017-11-17T12:55:12.289Z,15.10
2017-11-17T12:57:40.365Z,25.33
2017-11-17T13:00:06.717Z,12.67
2017-11-17T13:02:34.156Z,15.30
2017-11-17T13:05:00.490Z,25.60
2017-11-17T13:07:26.820Z,19.97
2017-11-17T13:09:53.172Z,26.93
2017-11-17T13:12:19.514Z,17.30
2017-11-17T13:14:45.953Z,15.87
2017-11-17T13:17:14.037Z,18.73
2017-11-17T13:19:40.365Z,18.57
2017-11-17T13:22:06.723Z,21.47
2017-11-17T13:24:33.849Z,17.30
2017-11-17T13:27:02.034Z,19.93
2017-11-17T13:29:29.189Z,18.77
2017-11-17T13:31:56.445Z,18.63
2017-11-17T13:34:22.773Z,17.10
2017-11-17T13:36:49.096Z,17.37
2017-11-17T13:39:16.069Z,13.60
2017-11-17T13:41:44.508Z,16.07
2017-11-17T13:44:10.869Z,16.83
2017-11-17T13:46:37.210Z,21.83
2017-11-17T13:49:03.869Z,18.20
2017-11-17T13:51:30.177Z,15.73
2017-11-17T13:53:57.674Z,17.40
2017-11-17T13:56:24.788Z,17.50
2017-11-17T13:58:52.493Z,16.37
2017-11-17T14:01:18.823Z,14.63
2017-11-17T14:03:45.154Z,15.57
2017-11-17T14:06:11.805Z,18.83
2017-11-17T14:08:38.122Z,21.40
2017-11-17T14:11:04.655Z,15.77
2017-11-17T14:13:31.157Z,19.23
2017-11-17T14:15:58.214Z,21.90
2017-11-17T14:18:25.298Z,17.93
2017-11-17T14:20:52.754Z,13.17
2017-11-17T14:23:19.069Z,18.80
2017-11-17T14:25:46.129Z,18.43
2017-11-17T14:28:12.830Z,16.00
2017-11-17T14:30:39.986Z,16.97
2017-11-17T14:33:06.356Z,13.70
2017-11-17T14:35:34.182Z,15.20
2017-11-17T14:38:01.550Z,18.53
2017-11-17T14:40:27.885Z,19.40
2017-11-17T14:42:54.936Z,14.50
2017-11-17T14:45:21.261Z,19.60
2017-11-17T14:47:47.591Z,11.53
2017-11-17T14:50:14.357Z,13.27
2017-11-17T14:52:42.078Z,14.17
2017-11-17T14:55:08.413Z,12.43
2017-11-17T14:57:35.627Z,12.50
2017-11-17T15:00:01.958Z,12.70
2017-11-17T15:02:28.884Z,13.53
2017-11-17T15:04:55.486Z,9.30
2017-11-17T15:07:22.698Z,15.13
2017-11-17T15:09:50.861Z,13.53
2017-11-17T15:12:17.363Z,11.90
2017-11-17T15:14:43.763Z,13.80
2017-11-17T15:17:10.167Z,13.47
2017-11-17T15:19:36.543Z,19.47
2017-11-17T15:22:04.471Z,18.30
2017-11-17T15:24:31.147Z,17.23
2017-11-17T15:26:58.508Z,21.03
2017-11-17T15:29:24.845Z,14.90
2017-11-17T15:31:51.894Z,14.90
2017-11-17T15:34:19.223Z,13.87
2017-11-17T15:36:45.594Z,13.30
2017-11-17T15:39:12.749Z,27.93
2017-11-17T15:41:40.107Z,11.23
2017-11-17T15:44:06.445Z,11.90
2017-11-17T15:46:32.810Z,10.17
2017-11-17T15:49:01.066Z,11.20
2017-11-17T15:51:27.436Z,11.90
2017-11-17T15:53:55.678Z,9.30
2017-11-17T15:56:23.090Z,11.40
2017-11-17T15:58:49.446Z,16.83
2017-11-17T16:01:15.813Z,20.20
2017-11-17T16:03:42.181Z,23.30
2017-11-17T16:06:09.270Z,16.70
2017-11-17T16:08:36.974Z,12.80
2017-11-17T16:11:03.306Z,9.50
2017-11-17T16:13:29.693Z,17.03
2017-11-17T16:15:56.078Z,12.03
2017-11-17T16:18:23.382Z,29.07
2017-11-17T16:20:50.554Z,17.73
2017-11-17T16:23:16.949Z,12.23
2017-11-17T16:25:44.706Z,13.53
2017-11-17T16:28:11.072Z,10.80
2017-11-17T16:30:38.917Z,15.20
2017-11-17T16:33:05.307Z,11.63
2017-11-17T16:35:31.626Z,13.57
2017-11-17T16:37:59.557Z,15.73
2017-11-17T16:40:25.910Z,11.83
2017-11-17T16:42:52.941Z,12.70
2017-11-17T16:45:20.105Z,13.67
2017-11-17T16:47:47.565Z,12.53
2017-11-17T16:50:13.884Z,12.33
2017-11-17T16:52:41.269Z,12.40
2017-11-17T16:55:07.630Z,12.83
2017-11-17T16:57:34.730Z,24.97
2017-11-17T17:00:01.410Z,21.20
2017-11-17T17:02:27.763Z,16.10
2017-11-17T17:04:55.597Z,11.77
2017-11-17T17:07:21.950Z,8.60
2017-11-17T17:09:49.757Z,9.37
2017-11-17T17:12:17.157Z,8.83
2017-11-17T17:14:44.533Z,6.70
2017-11-17T17:17:10.894Z,7.97
2017-11-17T17:19:37.924Z,8.47
2017-11-17T17:22:06.216Z,9.03
2017-11-17T17:24:33.326Z,8.50
2017-11-17T17:26:59.646Z,8.87
2017-11-17T17:29:26.822Z,10.17
2017-11-17T17:31:53.166Z,11.77
2017-11-17T17:34:19.511Z,9.80
2017-11-17T17:36:46.144Z,9.03
2017-11-17T17:39:13.213Z,15.03
2017-11-17T17:41:40.436Z,9.17
2017-11-17T17:44:08.041Z,12.23
2017-11-17T17:46:35.151Z,15.47
2017-11-17T17:49:17.288Z,12.90
2017-11-17T17:51:43.627Z,16.50
2017-11-17T17:54:09.937Z,17.77
2017-11-17T17:56:36.327Z,13.37
2017-11-17T17:59:03.588Z,13.43
2017-11-17T18:01:31.637Z,14.47
2017-11-17T18:03:58.685Z,13.67
2017-11-17T18:06:25.026Z,11.50
2017-11-17T18:08:52.326Z,13.37
2017-11-17T18:11:18.909Z,12.73
2017-11-17T18:13:46.080Z,14.73
2017-11-17T18:16:13.535Z,11.30
2017-11-17T18:18:40.802Z,20.10
2017-11-17T18:21:07.945Z,12.33
2017-11-17T18:23:34.260Z,12.97
2017-11-17T18:26:01.461Z,14.23
2017-11-17T18:28:29.523Z,17.80
2017-11-17T18:30:55.866Z,16.60
2017-11-17T18:33:23.524Z,12.87
2017-11-17T18:35:51.111Z,11.47
2017-11-17T18:38:18.147Z,23.17
2017-11-17T18:40:45.379Z,24.60
2017-11-17T18:43:12.368Z,16.53
2017-11-17T18:45:39.614Z,11.73
2017-11-17T18:48:07.481Z,12.63
2017-11-17T18:50:34.011Z,17.63
2017-11-17T18:53:00.344Z,13.40
2017-11-17T18:55:26.960Z,13.10
2017-11-17T18:57:53.305Z,10.00
2017-11-17T19:00:21.417Z,8.97
2017-11-17T19:02:47.777Z,8.80
2017-11-17T19:05:14.856Z,9.03
2017-11-17T19:07:41.253Z,10.80
2017-11-17T19:10:09.057Z,7.90
2017-11-17T19:12:36.333Z,8.27
2017-11-17T19:15:04.579Z,9.07
2017-11-17T19:17:32.729Z,15.20
2017-11-17T19:19:59.072Z,12.00
2017-11-17T19:22:26.840Z,16.63
2017-11-17T19:24:53.789Z,18.53
2017-11-17T19:27:20.160Z,21.20
2017-11-17T19:29:48.309Z,20.77
2017-11-17T19:32:15.363Z,18.50
2017-11-17T19:34:42.608Z,16.60
2017-11-17T19:37:11.504Z,18.90
2017-11-17T19:39:38.583Z,15.33
2017-11-17T19:42:06.438Z,13.97
2017-11-17T19:44:32.816Z,31.43
2017-11-17T19:46:59.262Z,27.37
2017-11-17T19:49:26.265Z,20.97
2017-11-17T19:51:52.604Z,16.50
2017-11-17T19:54:21.286Z,13.83
2017-11-17T19:56:47.696Z,20.90
2017-11-17T19:59:14.030Z,17.33
2017-11-17T20:01:40.423Z,10.73
2017-11-17T20:04:08.345Z,15.67
2017-11-17T20:06:35.531Z,22.40
2017-11-17T20:09:03.393Z,20.03
2017-11-17T20:11:31.414Z,21.50
2017-11-17T20:13:58.557Z,15.07
2017-11-17T20:16:25.590Z,12.33
2017-11-17T20:18:53.568Z,11.80
2017-11-17T20:21:21.396Z,22.27
2017-11-17T20:23:48.581Z,15.07
2017-11-17T20:26:14.912Z,13.60
2017-11-17T20:28:41.973Z,12.30
2017-11-17T20:31:09.751Z,21.50
2017-11-17T20:33:37.504Z,16.07
2017-11-17T20:36:04.597Z,12.77
2017-11-17T20:38:31.917Z,12.40
2017-11-17T20:40:59.173Z,13.77
2017-11-17T20:43:26.230Z,17.77
2017-11-17T20:45:53.390Z,19.57
2017-11-17T20:48:20.455Z,17.33
2017-11-17T20:50:47.707Z,13.80
2017-11-17T20:53:15.503Z,17.87
2017-11-17T20:55:43.333Z,16.97
2017-11-17T20:58:10.389Z,9.80
2017-11-17T21:00:37.653Z,14.47
2017-11-17T21:03:04.699Z,20.23
2017-11-17T21:05:32.261Z,13.80
2017-11-17T21:07:58.599Z,14.50
2017-11-17T21:10:26.579Z,14.07
2017-11-17T21:12:53.730Z,10.87
2017-11-17T21:15:20.208Z,12.00
2017-11-17T21:17:49.453Z,9.33
2017-11-17T21:20:16.517Z,10.70
2017-11-17T21:22:44.257Z,10.23
2017-11-17T21:25:12.157Z,17.90
2017-11-17T21:27:38.494Z,21.00
2017-11-17T21:30:04.893Z,23.10
2017-11-17T21:32:32.102Z,25.20
2017-11-17T21:34:59.165Z,25.33
2017-11-17T21:37:26.351Z,18.70
2017-11-17T21:39:52.692Z,14.73
2017-11-17T21:42:19.693Z,18.90
2017-11-17T21:44:46.918Z,16.23
2017-11-17T21:47:13.237Z,20.57
2017-11-17T21:49:39.630Z,17.80
2017-11-17T21:52:07.001Z,19.10
2017-11-17T21:54:33.347Z,25.27
2017-11-17T21:56:59.845Z,29.53
2017-11-17T21:59:27.171Z,19.57
2017-11-17T22:01:54.326Z,16.90
2017-11-17T22:04:20.680Z,15.23
2017-11-17T22:06:47.630Z,14.50
2017-11-17T22:09:14.821Z,15.93
2017-11-17T22:11:42.759Z,14.80
2017-11-17T22:14:09.092Z,18.53
2017-11-17T22:16:36.389Z,18.47
2017-11-17T22:19:04.732Z,16.00
2017-11-17T22:21:31.066Z,15.07
2017-11-17T22:23:57.745Z,16.63
2017-11-17T22:26:24.157Z,16.20
2017-11-17T22:28:50.652Z,14.13
2017-11-17T22:31:18.608Z,16.27
2017-11-17T22:33:46.991Z,14.30
2017-11-17T22:36:13.453Z,13.07
2017-11-17T22:38:41.216Z,14.43
2017-11-17T22:41:09.151Z,24.03
2017-11-17T22:43:35.488Z,15.73
2017-11-17T22:46:01.831Z,25.23
2017-11-17T22:48:28.477Z,19.13
2017-11-17T22:50:54.831Z,24.50
2017-11-17T22:53:21.295Z,20.83
2017-11-17T22:55:49.634Z,13.50
2017-11-17T22:58:16.688Z,13.97
2017-11-17T23:00:44.533Z,20.07
2017-11-17T23:03:10.885Z,23.47
2017-11-17T23:05:38.150Z,20.77
2017-11-17T23:08:05.108Z,22.80
2017-11-17T23:10:32.366Z,17.73
2017-11-17T23:12:58.720Z,19.20
2017-11-17T23:15:25.899Z,13.30
2017-11-17T23:17:52.317Z,13.20
2017-11-17T23:20:19.382Z,21.10
2017-11-17T23:22:46.484Z,10.97
2017-11-17T23:25:12.836Z,13.47
2017-11-17T23:27:39.881Z,14.40
2017-11-17T23:30:06.209Z,15.60
2017-11-17T23:32:32.542Z,11.47
2017-11-17T23:34:59.214Z,12.50
2017-11-17T23:37:27.286Z,18.27
2017-11-17T23:39:55.192Z,18.43
2017-11-17T23:42:22.919Z,17.17
2017-11-17T23:44:50.183Z,14.53
2017-11-17T23:47:16.537Z,12.20
2017-11-17T23:49:42.853Z,10.90
2017-11-17T23:52:09.897Z,12.33
2017-11-17T23:54:36.300Z,12.00
2017-11-17T23:57:03.500Z,11.40
2017-11-17T23:59:30.552Z,11.40
